sensor_id;sensor_type;location;lat;lon;timestamp;pressure;altitude;pressure_sealevel;temperature;humidity
71638;BME280;59485;43.542;-5.676;2022-08-03T00:01:39;101420.84;;;22.05;92.42
71638;BME280;59485;43.542;-5.676;2022-08-03T00:04:05;101423.03;;;22.03;92.90
71638;BME280;59485;43.542;-5.676;2022-08-03T00:06:32;101432.78;;;22.00;92.50
71638;BME280;59485;43.542;-5.676;2022-08-03T00:08:57;101459.22;;;22.10;91.88
71638;BME280;59485;43.542;-5.676;2022-08-03T00:11:26;101453.97;;;22.13;92.18
71638;BME280;59485;43.542;-5.676;2022-08-03T00:13:51;101453.50;;;22.04;92.24
71638;BME280;59485;43.542;-5.676;2022-08-03T00:16:17;101441.66;;;21.97;92.74
71638;BME280;59485;43.542;-5.676;2022-08-03T00:18:43;101445.97;;;22.05;93.00
71638;BME280;59485;43.542;-5.676;2022-08-03T00:21:09;101449.63;;;22.05;92.64
71638;BME280;59485;43.542;-5.676;2022-08-03T00:23:35;101447.69;;;22.06;93.13
71638;BME280;59485;43.542;-5.676;2022-08-03T00:26:00;101417.69;;;22.01;92.92
71638;BME280;59485;43.542;-5.676;2022-08-03T00:28:26;101422.19;;;22.02;92.39
71638;BME280;59485;43.542;-5.676;2022-08-03T00:30:52;101418.91;;;22.05;92.47
71638;BME280;59485;43.542;-5.676;2022-08-03T00:33:20;101419.75;;;22.06;92.17
71638;BME280;59485;43.542;-5.676;2022-08-03T00:35:45;101409.22;;;21.96;92.59
71638;BME280;59485;43.542;-5.676;2022-08-03T00:38:11;101417.69;;;22.01;93.25
71638;BME280;59485;43.542;-5.676;2022-08-03T00:40:36;101417.97;;;22.00;93.22
71638;BME280;59485;43.542;-5.676;2022-08-03T00:43:05;101399.06;;;21.90;93.47
71638;BME280;59485;43.542;-5.676;2022-08-03T00:45:39;101412.00;;;21.96;94.07
71638;BME280;59485;43.542;-5.676;2022-08-03T00:48:06;101408.00;;;21.92;93.36
71638;BME280;59485;43.542;-5.676;2022-08-03T00:50:35;101410.78;;;21.92;94.51
71638;BME280;59485;43.542;-5.676;2022-08-03T00:53:03;101385.84;;;21.86;94.36
71638;BME280;59485;43.542;-5.676;2022-08-03T00:55:29;101401.84;;;21.90;95.04
71638;BME280;59485;43.542;-5.676;2022-08-03T00:57:55;101384.38;;;21.83;94.81
71638;BME280;59485;43.542;-5.676;2022-08-03T01:00:23;101398.22;;;21.90;94.91
71638;BME280;59485;43.542;-5.676;2022-08-03T01:02:50;101395.91;;;21.87;94.66
71638;BME280;59485;43.542;-5.676;2022-08-03T01:05:16;101393.97;;;21.87;95.62
71638;BME280;59485;43.542;-5.676;2022-08-03T01:08:07;101382.19;;;21.85;95.51
71638;BME280;59485;43.542;-5.676;2022-08-03T01:13:28;101384.75;;;21.87;95.10
71638;BME280;59485;43.542;-5.676;2022-08-03T01:16:04;101371.94;;;21.74;94.86
71638;BME280;59485;43.542;-5.676;2022-08-03T01:18:39;101381.94;;;21.87;95.96
71638;BME280;59485;43.542;-5.676;2022-08-03T01:21:09;101379.91;;;21.82;95.47
71638;BME280;59485;43.542;-5.676;2022-08-03T01:24:34;101376.53;;;21.80;95.89
71638;BME280;59485;43.542;-5.676;2022-08-03T01:29:49;101372.63;;;21.81;96.33
71638;BME280;59485;43.542;-5.676;2022-08-03T01:32:23;101370.59;;;21.77;96.42
71638;BME280;59485;43.542;-5.676;2022-08-03T01:35:04;101380.41;;;21.79;96.68
71638;BME280;59485;43.542;-5.676;2022-08-03T01:37:36;101368.03;;;21.75;96.42
71638;BME280;59485;43.542;-5.676;2022-08-03T01:40:04;101370.81;;;21.75;96.70
71638;BME280;59485;43.542;-5.676;2022-08-03T01:42:31;101371.69;;;21.76;96.76
71638;BME280;59485;43.542;-5.676;2022-08-03T01:45:00;101374.75;;;21.74;97.06
71638;BME280;59485;43.542;-5.676;2022-08-03T01:47:28;101357.53;;;21.65;97.11
71638;BME280;59485;43.542;-5.676;2022-08-03T01:49:55;101355.22;;;21.74;97.32
71638;BME280;59485;43.542;-5.676;2022-08-03T01:52:22;101363.66;;;21.79;97.40
71638;BME280;59485;43.542;-5.676;2022-08-03T01:54:51;101347.81;;;21.68;96.97
71638;BME280;59485;43.542;-5.676;2022-08-03T01:57:18;101359.66;;;21.75;97.14
71638;BME280;59485;43.542;-5.676;2022-08-03T01:59:47;101357.22;;;21.79;97.15
71638;BME280;59485;43.542;-5.676;2022-08-03T02:02:15;101357.22;;;21.79;96.86
71638;BME280;59485;43.542;-5.676;2022-08-03T02:04:42;101359.78;;;21.80;97.09
71638;BME280;59485;43.542;-5.676;2022-08-03T02:07:09;101360.19;;;21.72;97.26
71638;BME280;59485;43.542;-5.676;2022-08-03T02:09:38;101353.50;;;21.73;97.09
71638;BME280;59485;43.542;-5.676;2022-08-03T02:12:07;101354.34;;;21.74;97.00
71638;BME280;59485;43.542;-5.676;2022-08-03T02:14:33;101345.25;;;21.66;96.88
71638;BME280;59485;43.542;-5.676;2022-08-03T02:17:00;101343.94;;;21.69;97.03
71638;BME280;59485;43.542;-5.676;2022-08-03T02:19:26;101352.97;;;21.76;97.26
71638;BME280;59485;43.542;-5.676;2022-08-03T02:21:53;101315.13;;;21.52;96.62
71638;BME280;59485;43.542;-5.676;2022-08-03T02:24:19;101350.19;;;21.76;97.28
71638;BME280;59485;43.542;-5.676;2022-08-03T02:26:45;101327.66;;;21.66;96.80
71638;BME280;59485;43.542;-5.676;2022-08-03T02:29:15;101342.34;;;21.73;96.50
71638;BME280;59485;43.542;-5.676;2022-08-03T02:31:43;101318.63;;;21.59;96.74
71638;BME280;59485;43.542;-5.676;2022-08-03T02:34:13;101330.97;;;21.63;96.92
71638;BME280;59485;43.542;-5.676;2022-08-03T02:36:40;101318.81;;;21.69;96.99
71638;BME280;59485;43.542;-5.676;2022-08-03T02:39:10;101336.34;;;21.81;97.24
71638;BME280;59485;43.542;-5.676;2022-08-03T02:41:47;101319.41;;;21.71;97.02
71638;BME280;59485;43.542;-5.676;2022-08-03T02:44:16;101334.06;;;21.78;96.38
71638;BME280;59485;43.542;-5.676;2022-08-03T02:46:44;101341.09;;;21.81;96.17
71638;BME280;59485;43.542;-5.676;2022-08-03T02:49:12;101338.78;;;21.78;96.29
71638;BME280;59485;43.542;-5.676;2022-08-03T02:51:40;101331.19;;;21.73;96.57
71638;BME280;59485;43.542;-5.676;2022-08-03T02:54:07;101338.53;;;21.79;96.61
71638;BME280;59485;43.542;-5.676;2022-08-03T02:56:35;101333.69;;;21.75;96.53
71638;BME280;59485;43.542;-5.676;2022-08-03T02:59:03;101337.69;;;21.79;96.58
71638;BME280;59485;43.542;-5.676;2022-08-03T03:01:30;101333.13;;;21.73;97.00
71638;BME280;59485;43.542;-5.676;2022-08-03T03:03:56;101327.28;;;21.74;96.91
71638;BME280;59485;43.542;-5.676;2022-08-03T03:06:24;101335.38;;;21.76;96.60
71638;BME280;59485;43.542;-5.676;2022-08-03T03:08:51;101325.25;;;21.69;96.68
71638;BME280;59485;43.542;-5.676;2022-08-03T03:11:18;101341.94;;;21.81;96.58
71638;BME280;59485;43.542;-5.676;2022-08-03T03:13:46;101344.81;;;21.86;96.98
71638;BME280;59485;43.542;-5.676;2022-08-03T03:16:13;101335.25;;;21.82;96.39
71638;BME280;59485;43.542;-5.676;2022-08-03T03:18:40;101344.19;;;21.84;96.34
71638;BME280;59485;43.542;-5.676;2022-08-03T03:21:08;101330.16;;;21.79;96.42
71638;BME280;59485;43.542;-5.676;2022-08-03T03:23:36;101343.97;;;21.86;96.74
71638;BME280;59485;43.542;-5.676;2022-08-03T03:26:03;101338.97;;;21.88;96.32
71638;BME280;59485;43.542;-5.676;2022-08-03T03:28:29;101327.72;;;21.83;96.25
71638;BME280;59485;43.542;-5.676;2022-08-03T03:30:56;101322.16;;;21.83;96.03
71638;BME280;59485;43.542;-5.676;2022-08-03T03:33:25;101336.78;;;21.90;95.92
71638;BME280;59485;43.542;-5.676;2022-08-03T03:35:50;101325.50;;;21.85;95.83
71638;BME280;59485;43.542;-5.676;2022-08-03T03:38:17;101329.69;;;21.82;95.81
71638;BME280;59485;43.542;-5.676;2022-08-03T03:40:43;101328.41;;;21.90;95.60
71638;BME280;59485;43.542;-5.676;2022-08-03T03:43:10;101311.81;;;21.83;95.94
71638;BME280;59485;43.542;-5.676;2022-08-03T03:45:37;101336.00;;;21.94;95.74
71638;BME280;59485;43.542;-5.676;2022-08-03T03:48:03;101333.22;;;21.94;95.11
71638;BME280;59485;43.542;-5.676;2022-08-03T03:50:31;101342.69;;;21.93;95.46
71638;BME280;59485;43.542;-5.676;2022-08-03T03:52:57;101353.38;;;21.96;95.18
71638;BME280;59485;43.542;-5.676;2022-08-03T03:55:23;101335.81;;;21.84;94.90
71638;BME280;59485;43.542;-5.676;2022-08-03T03:57:49;101354.97;;;21.92;95.43
71638;BME280;59485;43.542;-5.676;2022-08-03T04:00:16;101340.56;;;21.84;95.74
71638;BME280;59485;43.542;-5.676;2022-08-03T04:02:42;101343.63;;;21.82;95.38
71638;BME280;59485;43.542;-5.676;2022-08-03T04:05:08;101352.69;;;21.89;95.80
71638;BME280;59485;43.542;-5.676;2022-08-03T04:08:00;101351.00;;;21.88;95.68
71638;BME280;59485;43.542;-5.676;2022-08-03T04:13:30;101347.59;;;21.86;96.16
71638;BME280;59485;43.542;-5.676;2022-08-03T04:15:58;101336.84;;;21.78;96.40
71638;BME280;59485;43.542;-5.676;2022-08-03T04:18:26;101350.16;;;21.88;96.39
71638;BME280;59485;43.542;-5.676;2022-08-03T04:20:54;101343.34;;;21.84;96.22
71638;BME280;59485;43.542;-5.676;2022-08-03T04:23:24;101331.50;;;21.77;96.84
71638;BME280;59485;43.542;-5.676;2022-08-03T04:25:53;101337.44;;;21.80;97.17
71638;BME280;59485;43.542;-5.676;2022-08-03T04:28:21;101324.50;;;21.74;96.88
71638;BME280;59485;43.542;-5.676;2022-08-03T04:30:48;101338.91;;;21.83;97.18
71638;BME280;59485;43.542;-5.676;2022-08-03T04:33:18;101330.41;;;21.78;97.29
71638;BME280;59485;43.542;-5.676;2022-08-03T04:35:45;101324.22;;;21.76;97.25
71638;BME280;59485;43.542;-5.676;2022-08-03T04:38:13;101346.16;;;21.84;97.42
71638;BME280;59485;43.542;-5.676;2022-08-03T04:40:41;101350.31;;;21.81;97.37
71638;BME280;59485;43.542;-5.676;2022-08-03T04:43:10;101345.38;;;21.71;97.42
71638;BME280;59485;43.542;-5.676;2022-08-03T04:45:37;101342.22;;;21.68;97.70
71638;BME280;59485;43.542;-5.676;2022-08-03T04:48:04;101352.75;;;21.78;97.87
71638;BME280;59485;43.542;-5.676;2022-08-03T04:50:29;101351.41;;;21.80;97.88
71638;BME280;59485;43.542;-5.676;2022-08-03T04:52:55;101361.31;;;21.88;98.30
71638;BME280;59485;43.542;-5.676;2022-08-03T04:55:28;101332.03;;;21.74;98.19
71638;BME280;59485;43.542;-5.676;2022-08-03T04:57:54;101333.88;;;21.85;97.56
71638;BME280;59485;43.542;-5.676;2022-08-03T05:00:20;101330.69;;;21.93;98.37
71638;BME280;59485;43.542;-5.676;2022-08-03T05:02:46;101321.63;;;21.86;97.83
71638;BME280;59485;43.542;-5.676;2022-08-03T05:05:11;101342.44;;;21.95;98.45
71638;BME280;59485;43.542;-5.676;2022-08-03T05:07:37;101345.50;;;21.93;97.89
71638;BME280;59485;43.542;-5.676;2022-08-03T05:10:04;101344.31;;;21.89;97.88
71638;BME280;59485;43.542;-5.676;2022-08-03T05:12:31;101326.09;;;21.70;97.34
71638;BME280;59485;43.542;-5.676;2022-08-03T05:14:56;101337.34;;;21.75;97.80
71638;BME280;59485;43.542;-5.676;2022-08-03T05:17:22;101355.88;;;21.81;97.88
71638;BME280;59485;43.542;-5.676;2022-08-03T05:19:48;101356.38;;;21.78;97.66
71638;BME280;59485;43.542;-5.676;2022-08-03T05:22:13;101360.25;;;21.77;98.02
71638;BME280;59485;43.542;-5.676;2022-08-03T05:24:39;101354.34;;;21.74;97.82
71638;BME280;59485;43.542;-5.676;2022-08-03T05:27:04;101364.84;;;21.83;97.21
71638;BME280;59485;43.542;-5.676;2022-08-03T05:29:29;101364.25;;;21.81;96.93
71638;BME280;59485;43.542;-5.676;2022-08-03T05:31:55;101345.38;;;21.71;97.13
71638;BME280;59485;43.542;-5.676;2022-08-03T05:34:20;101353.50;;;21.73;96.79
71638;BME280;59485;43.542;-5.676;2022-08-03T05:36:46;101363.66;;;21.79;97.22
71638;BME280;59485;43.542;-5.676;2022-08-03T05:39:11;101359.41;;;21.77;97.10
71638;BME280;59485;43.542;-5.676;2022-08-03T05:41:37;101368.16;;;21.80;97.20
71638;BME280;59485;43.542;-5.676;2022-08-03T05:44:03;101367.38;;;21.85;97.86
71638;BME280;59485;43.542;-5.676;2022-08-03T05:46:29;101367.31;;;21.80;97.89
71638;BME280;59485;43.542;-5.676;2022-08-03T05:48:54;101377.97;;;21.83;97.43
71638;BME280;59485;43.542;-5.676;2022-08-03T05:51:20;101361.13;;;21.78;97.58
71638;BME280;59485;43.542;-5.676;2022-08-03T05:53:45;101360.88;;;21.79;97.45
71638;BME280;59485;43.542;-5.676;2022-08-03T05:56:11;101361.97;;;21.78;97.75
71638;BME280;59485;43.542;-5.676;2022-08-03T05:58:36;101372.63;;;21.81;97.52
71638;BME280;59485;43.542;-5.676;2022-08-03T06:01:02;101383.28;;;21.84;97.81
71638;BME280;59485;43.542;-5.676;2022-08-03T06:03:28;101370.41;;;21.83;98.00
71638;BME280;59485;43.542;-5.676;2022-08-03T06:05:53;101384.84;;;21.92;97.88
71638;BME280;59485;43.542;-5.676;2022-08-03T06:08:21;101374.50;;;21.92;97.87
71638;BME280;59485;43.542;-5.676;2022-08-03T06:10:47;101380.38;;;21.91;97.40
71638;BME280;59485;43.542;-5.676;2022-08-03T06:13:12;101385.09;;;21.90;97.66
71638;BME280;59485;43.542;-5.676;2022-08-03T06:15:39;101384.84;;;21.92;97.30
71638;BME280;59485;43.542;-5.676;2022-08-03T06:18:04;101379.84;;;21.94;97.52
71638;BME280;59485;43.542;-5.676;2022-08-03T06:20:30;101375.03;;;21.89;97.47
71638;BME280;59485;43.542;-5.676;2022-08-03T06:22:55;101380.00;;;21.87;97.94
71638;BME280;59485;43.542;-5.676;2022-08-03T06:25:21;101377.13;;;21.82;97.66
71638;BME280;59485;43.542;-5.676;2022-08-03T06:27:46;101387.88;;;21.90;98.24
71638;BME280;59485;43.542;-5.676;2022-08-03T06:30:12;101380.59;;;21.89;98.44
71638;BME280;59485;43.542;-5.676;2022-08-03T06:32:39;101394.31;;;21.91;98.12
71638;BME280;59485;43.542;-5.676;2022-08-03T06:35:06;101396.34;;;21.95;98.49
71638;BME280;59485;43.542;-5.676;2022-08-03T06:37:45;101411.41;;;21.94;98.44
71638;BME280;59485;43.542;-5.676;2022-08-03T06:40:17;101409.22;;;21.96;98.28
71638;BME280;59485;43.542;-5.676;2022-08-03T06:42:43;101408.75;;;21.99;98.88
71638;BME280;59485;43.542;-5.676;2022-08-03T06:45:10;101412.13;;;22.01;98.87
71638;BME280;59485;43.542;-5.676;2022-08-03T06:47:36;101407.50;;;21.95;98.79
71638;BME280;59485;43.542;-5.676;2022-08-03T06:50:06;101396.84;;;21.92;98.46
71638;BME280;59485;43.542;-5.676;2022-08-03T06:52:34;101399.31;;;21.89;98.33
71638;BME280;59485;43.542;-5.676;2022-08-03T06:55:00;101405.97;;;21.88;98.62
71638;BME280;59485;43.542;-5.676;2022-08-03T06:57:25;101407.66;;;21.89;98.53
71638;BME280;59485;43.542;-5.676;2022-08-03T06:59:51;101409.44;;;21.95;99.02
71638;BME280;59485;43.542;-5.676;2022-08-03T07:02:16;101410.31;;;21.95;98.49
71638;BME280;59485;43.542;-5.676;2022-08-03T07:04:46;101402.59;;;21.86;98.57
71638;BME280;59485;43.542;-5.676;2022-08-03T07:07:12;101397.25;;;21.84;98.44
71638;BME280;59485;43.542;-5.676;2022-08-03T07:09:38;101411.16;;;21.96;98.91
71638;BME280;59485;43.542;-5.676;2022-08-03T07:12:03;101399.63;;;21.92;98.69
71638;BME280;59485;43.542;-5.676;2022-08-03T07:14:30;101387.66;;;21.92;98.69
71638;BME280;59485;43.542;-5.676;2022-08-03T07:16:56;101411.75;;;22.10;98.89
71638;BME280;59485;43.542;-5.676;2022-08-03T07:19:22;101414.84;;;22.13;98.54
71638;BME280;59485;43.542;-5.676;2022-08-03T07:21:47;101414.38;;;22.16;98.45
71638;BME280;59485;43.542;-5.676;2022-08-03T07:24:13;101408.84;;;22.21;98.00
71638;BME280;59485;43.542;-5.676;2022-08-03T07:26:38;101406.00;;;22.16;98.13
71638;BME280;59485;43.542;-5.676;2022-08-03T07:29:04;101412.50;;;22.22;98.08
71638;BME280;59485;43.542;-5.676;2022-08-03T07:31:29;101404.31;;;22.32;98.00
71638;BME280;59485;43.542;-5.676;2022-08-03T07:33:55;101401.25;;;22.33;97.61
71638;BME280;59485;43.542;-5.676;2022-08-03T07:36:21;101415.41;;;22.43;97.36
71638;BME280;59485;43.542;-5.676;2022-08-03T07:38:46;101406.09;;;22.55;97.29
71638;BME280;59485;43.542;-5.676;2022-08-03T07:41:12;101416.00;;;22.62;96.71
71638;BME280;59485;43.542;-5.676;2022-08-03T07:43:37;101424.28;;;22.74;96.78
71638;BME280;59485;43.542;-5.676;2022-08-03T07:46:03;101416.28;;;22.77;95.93
71638;BME280;59485;43.542;-5.676;2022-08-03T07:48:28;101418.78;;;22.96;96.14
71638;BME280;59485;43.542;-5.676;2022-08-03T07:50:54;101421.50;;;23.07;95.24
71638;BME280;59485;43.542;-5.676;2022-08-03T07:53:19;101426.38;;;23.17;94.52
71638;BME280;59485;43.542;-5.676;2022-08-03T07:55:45;101407.91;;;23.16;92.94
71638;BME280;59485;43.542;-5.676;2022-08-03T07:58:11;101427.78;;;23.19;91.23
71638;BME280;59485;43.542;-5.676;2022-08-03T08:00:40;101426.09;;;23.18;90.25
71638;BME280;59485;43.542;-5.676;2022-08-03T08:03:06;101433.59;;;23.13;90.19
71638;BME280;59485;43.542;-5.676;2022-08-03T08:05:31;101413.44;;;22.94;90.91
71638;BME280;59485;43.542;-5.676;2022-08-03T08:07:57;101417.59;;;22.92;90.92
71638;BME280;59485;43.542;-5.676;2022-08-03T08:10:22;101406.34;;;22.87;91.19
71638;BME280;59485;43.542;-5.676;2022-08-03T08:12:48;101421.00;;;22.94;91.54
71638;BME280;59485;43.542;-5.676;2022-08-03T08:15:14;101422.09;;;22.93;91.93
71638;BME280;59485;43.542;-5.676;2022-08-03T08:17:54;101433.72;;;22.85;91.85
71638;BME280;59485;43.542;-5.676;2022-08-03T08:20:22;101425.25;;;22.79;91.82
71638;BME280;59485;43.542;-5.676;2022-08-03T08:22:48;101417.00;;;22.73;92.61
71638;BME280;59485;43.542;-5.676;2022-08-03T08:25:14;101395.19;;;22.53;92.22
71638;BME280;59485;43.542;-5.676;2022-08-03T08:27:44;101402.53;;;22.59;92.59
71638;BME280;59485;43.542;-5.676;2022-08-03T08:30:14;101413.28;;;22.67;93.00
71638;BME280;59485;43.542;-5.676;2022-08-03T08:32:40;101395.75;;;22.55;93.51
71638;BME280;59485;43.542;-5.676;2022-08-03T08:35:07;101409.56;;;22.62;93.38
71638;BME280;59485;43.542;-5.676;2022-08-03T08:37:33;101406.59;;;22.52;93.43
71638;BME280;59485;43.542;-5.676;2022-08-03T08:39:59;101417.09;;;22.44;94.05
71638;BME280;59485;43.542;-5.676;2022-08-03T08:42:25;101414.63;;;22.48;94.10
71638;BME280;59485;43.542;-5.676;2022-08-03T08:44:50;101400.75;;;22.36;94.06
71638;BME280;59485;43.542;-5.676;2022-08-03T08:47:25;101425.97;;;22.41;94.04
71638;BME280;59485;43.542;-5.676;2022-08-03T08:49:53;101420.66;;;22.40;94.15
71638;BME280;59485;43.542;-5.676;2022-08-03T08:52:24;101414.63;;;22.31;94.17
71638;BME280;59485;43.542;-5.676;2022-08-03T08:55:00;101409.41;;;22.35;94.25
71638;BME280;59485;43.542;-5.676;2022-08-03T08:57:36;101412.19;;;22.35;93.92
71638;BME280;59485;43.542;-5.676;2022-08-03T09:00:07;101414.31;;;22.44;94.67
71638;BME280;59485;43.542;-5.676;2022-08-03T09:02:39;101416.34;;;22.49;93.90
71638;BME280;59485;43.542;-5.676;2022-08-03T09:05:12;101414.72;;;22.53;94.00
71638;BME280;59485;43.542;-5.676;2022-08-03T09:07:39;101414.13;;;22.51;93.56
71638;BME280;59485;43.542;-5.676;2022-08-03T09:10:06;101403.13;;;22.44;93.63
71638;BME280;59485;43.542;-5.676;2022-08-03T09:12:37;101413.78;;;22.48;94.04
71638;BME280;59485;43.542;-5.676;2022-08-03T09:15:23;101411.25;;;22.46;93.48
71638;BME280;59485;43.542;-5.676;2022-08-03T09:17:50;101414.03;;;22.29;92.78
71638;BME280;59485;43.542;-5.676;2022-08-03T09:20:17;101402.94;;;22.18;93.68
71638;BME280;59485;43.542;-5.676;2022-08-03T09:22:58;101421.22;;;22.25;93.77
71638;BME280;59485;43.542;-5.676;2022-08-03T09:25:34;101418.53;;;22.30;94.06
71638;BME280;59485;43.542;-5.676;2022-08-03T09:28:06;101403.63;;;22.25;93.89
71638;BME280;59485;43.542;-5.676;2022-08-03T09:30:32;101419.13;;;22.32;93.81
71638;BME280;59485;43.542;-5.676;2022-08-03T09:33:02;101403.63;;;22.25;93.66
71638;BME280;59485;43.542;-5.676;2022-08-03T09:35:27;101399.44;;;22.11;93.75
71638;BME280;59485;43.542;-5.676;2022-08-03T09:40:35;101405.63;;;22.13;94.17
71638;BME280;59485;43.542;-5.676;2022-08-03T09:43:01;101413.84;;;22.19;94.70
71638;BME280;59485;43.542;-5.676;2022-08-03T09:45:27;101406.91;;;22.22;94.29
71638;BME280;59485;43.542;-5.676;2022-08-03T09:47:54;101406.06;;;22.21;94.30
71638;BME280;59485;43.542;-5.676;2022-08-03T09:50:21;101395.00;;;22.26;94.48
71638;BME280;59485;43.542;-5.676;2022-08-03T09:52:46;101411.09;;;22.36;94.46
71638;BME280;59485;43.542;-5.676;2022-08-03T09:55:16;101395.06;;;22.31;93.89
71638;BME280;59485;43.542;-5.676;2022-08-03T09:57:43;101402.19;;;22.39;93.85
71638;BME280;59485;43.542;-5.676;2022-08-03T10:00:16;101411.59;;;22.50;93.66
71638;BME280;59485;43.542;-5.676;2022-08-03T10:02:43;101413.53;;;22.49;92.53
71638;BME280;59485;43.542;-5.676;2022-08-03T10:05:11;101415.72;;;22.47;92.64
71638;BME280;59485;43.542;-5.676;2022-08-03T10:07:48;101412.88;;;22.42;91.74
71638;BME280;59485;43.542;-5.676;2022-08-03T10:10:16;101429.63;;;22.42;92.45
71638;BME280;59485;43.542;-5.676;2022-08-03T10:12:43;101407.34;;;22.30;92.22
71638;BME280;59485;43.542;-5.676;2022-08-03T10:15:10;101423.13;;;22.36;92.35
71638;BME280;59485;43.542;-5.676;2022-08-03T10:17:36;101424.53;;;22.39;92.36
71638;BME280;59485;43.542;-5.676;2022-08-03T10:20:04;101437.16;;;22.41;91.64
71638;BME280;59485;43.542;-5.676;2022-08-03T10:22:35;101414.13;;;22.34;92.03
71638;BME280;59485;43.542;-5.676;2022-08-03T10:25:09;101426.84;;;22.42;91.39
71638;BME280;59485;43.542;-5.676;2022-08-03T10:27:38;101433.28;;;22.42;91.94
71638;BME280;59485;43.542;-5.676;2022-08-03T10:30:09;101439.88;;;22.36;91.35
71638;BME280;59485;43.542;-5.676;2022-08-03T10:32:55;101419.19;;;22.21;91.57
71638;BME280;59485;43.542;-5.676;2022-08-03T10:35:24;101419.09;;;22.16;91.67
71638;BME280;59485;43.542;-5.676;2022-08-03T10:40:21;101430.88;;;22.18;91.13
71638;BME280;59485;43.542;-5.676;2022-08-03T10:42:50;101442.47;;;22.26;91.71
71638;BME280;59485;43.542;-5.676;2022-08-03T10:45:27;101436.72;;;22.16;91.15
71638;BME280;59485;43.542;-5.676;2022-08-03T10:47:54;101432.22;;;22.15;92.10
71638;BME280;59485;43.542;-5.676;2022-08-03T10:50:23;101427.38;;;22.11;91.86
71638;BME280;59485;43.542;-5.676;2022-08-03T10:52:56;101439.25;;;22.18;90.46
71638;BME280;59485;43.542;-5.676;2022-08-03T10:55:42;101424.00;;;22.08;91.27
71638;BME280;59485;43.542;-5.676;2022-08-03T11:01:05;101435.03;;;22.32;91.09
71638;BME280;59485;43.542;-5.676;2022-08-03T11:03:31;101433.69;;;22.34;90.56
71638;BME280;59485;43.542;-5.676;2022-08-03T11:06:21;101424.19;;;22.19;89.90
71638;BME280;59485;43.542;-5.676;2022-08-03T11:08:48;101428.53;;;22.26;89.46
71638;BME280;59485;43.542;-5.676;2022-08-03T11:16:28;101433.75;;;22.39;88.95
71638;BME280;59485;43.542;-5.676;2022-08-03T11:18:59;101435.72;;;22.39;88.18
71638;BME280;59485;43.542;-5.676;2022-08-03T11:27:29;101443.41;;;22.32;88.27
71638;BME280;59485;43.542;-5.676;2022-08-03T11:30:05;101451.72;;;22.27;88.87
71638;BME280;59485;43.542;-5.676;2022-08-03T11:32:50;101444.44;;;22.26;88.24
71638;BME280;59485;43.542;-5.676;2022-08-03T11:40:38;101449.00;;;22.32;87.78
71638;BME280;59485;43.542;-5.676;2022-08-03T11:43:05;101441.31;;;22.39;88.81
71638;BME280;59485;43.542;-5.676;2022-08-03T11:45:32;101433.44;;;22.36;87.67
71638;BME280;59485;43.542;-5.676;2022-08-03T11:48:13;101437.34;;;22.35;87.53
71638;BME280;59485;43.542;-5.676;2022-08-03T11:50:40;101447.41;;;22.36;87.61
71638;BME280;59485;43.542;-5.676;2022-08-03T11:53:06;101448.94;;;22.43;87.99
71638;BME280;59485;43.542;-5.676;2022-08-03T11:55:31;101446.56;;;22.35;86.99
71638;BME280;59485;43.542;-5.676;2022-08-03T11:58:00;101447.91;;;22.33;86.73
71638;BME280;59485;43.542;-5.676;2022-08-03T12:02:55;101464.84;;;22.43;86.74
71638;BME280;59485;43.542;-5.676;2022-08-03T12:05:38;101456.56;;;22.48;86.72
71638;BME280;59485;43.542;-5.676;2022-08-03T12:08:04;101459.28;;;22.43;86.14
71638;BME280;59485;43.542;-5.676;2022-08-03T12:10:31;101457.75;;;22.35;86.42
71638;BME280;59485;43.542;-5.676;2022-08-03T12:12:58;101445.16;;;22.21;86.10
71638;BME280;59485;43.542;-5.676;2022-08-03T12:15:26;101465.59;;;22.38;86.47
71638;BME280;59485;43.542;-5.676;2022-08-03T12:17:51;101471.91;;;22.45;86.72
71638;BME280;59485;43.542;-5.676;2022-08-03T12:20:26;101466.13;;;22.52;86.67
71638;BME280;59485;43.542;-5.676;2022-08-03T12:22:52;101447.72;;;22.39;86.32
71638;BME280;59485;43.542;-5.676;2022-08-03T12:25:25;101473.00;;;22.61;86.56
71638;BME280;59485;43.542;-5.676;2022-08-03T12:27:52;101469.69;;;22.64;85.43
71638;BME280;59485;43.542;-5.676;2022-08-03T12:30:18;101464.09;;;22.64;85.54
71638;BME280;59485;43.542;-5.676;2022-08-03T12:32:45;101468.00;;;22.63;85.68
71638;BME280;59485;43.542;-5.676;2022-08-03T12:35:21;101472.16;;;22.61;85.20
71638;BME280;59485;43.542;-5.676;2022-08-03T12:37:49;101472.41;;;22.59;85.79
71638;BME280;59485;43.542;-5.676;2022-08-03T12:40:23;101467.84;;;22.53;85.49
71638;BME280;59485;43.542;-5.676;2022-08-03T12:42:50;101486.44;;;22.64;85.87
71638;BME280;59485;43.542;-5.676;2022-08-03T12:45:26;101471.63;;;22.64;85.54
71638;BME280;59485;43.542;-5.676;2022-08-03T12:47:57;101485.22;;;22.72;85.39
71638;BME280;59485;43.542;-5.676;2022-08-03T12:52:52;101484.47;;;22.76;84.83
71638;BME280;59485;43.542;-5.676;2022-08-03T12:55:21;101481.78;;;22.81;84.37
71638;BME280;59485;43.542;-5.676;2022-08-03T12:57:47;101462.94;;;22.77;84.28
71638;BME280;59485;43.542;-5.676;2022-08-03T13:00:17;101482.25;;;22.95;83.61
71638;BME280;59485;43.542;-5.676;2022-08-03T13:02:44;101472.44;;;22.93;84.33
71638;BME280;59485;43.542;-5.676;2022-08-03T13:05:14;101469.38;;;22.94;83.94
71638;BME280;59485;43.542;-5.676;2022-08-03T13:07:40;101471.75;;;23.02;82.97
71638;BME280;59485;43.542;-5.676;2022-08-03T13:10:07;101484.69;;;23.25;82.45
71638;BME280;59485;43.542;-5.676;2022-08-03T13:12:45;101476.69;;;23.34;81.93
71638;BME280;59485;43.542;-5.676;2022-08-03T13:15:11;101474.63;;;23.46;81.26
71638;BME280;59485;43.542;-5.676;2022-08-03T13:17:37;101467.19;;;23.51;80.64
71638;BME280;59485;43.542;-5.676;2022-08-03T13:20:03;101475.81;;;23.72;80.78
71638;BME280;59485;43.542;-5.676;2022-08-03T13:22:29;101482.16;;;23.84;79.78
71638;BME280;59485;43.542;-5.676;2022-08-03T13:24:55;101464.25;;;23.63;80.01